Time;durP1;ratioP1;P1;durP2;ratioP2;P2;SDS_P1;SDS_P2;PMS_P1;PMS_P2;Temp;Humidity;BMP_temperature;BMP_pressure;BME280_temperature;BME280_humidity;BME280_pressure;Samples;Min_cycle;Max_cycle;Signal;HPM_P1;HPM_P2
2021/11/11 00:02:18;;;;;;;7.42;5.67;;;;;;;13.21;44.23;101414.02;1745227;80;21133;-64
2021/11/11 00:04:46;;;;;;;8.53;6.22;;;;;;;13.21;44.22;101418.03;1745227;80;21034;-64
2021/11/11 00:07:13;;;;;;;7.20;6.08;;;;;;;13.19;44.19;101409.33;1754260;80;21078;-63
2021/11/11 00:09:41;;;;;;;8.30;6.30;;;;;;;13.18;44.19;101410.33;1756202;80;21031;-63
2021/11/11 00:12:08;;;;;;;7.55;6.60;;;;;;;13.17;44.18;101399.30;1749569;80;21159;-64
2021/11/11 00:14:36;;;;;;;7.70;6.12;;;;;;;13.15;44.17;101392.80;1758228;80;22227;-63
2021/11/11 00:17:03;;;;;;;6.90;5.70;;;;;;;13.15;44.18;101388.79;1747110;80;21038;-63
2021/11/11 00:19:29;;;;;;;6.58;5.50;;;;;;;13.14;44.15;101386.26;1758232;80;21106;-64
2021/11/11 00:21:56;;;;;;;6.75;5.80;;;;;;;13.13;44.17;101380.55;1751719;80;21137;-64
2021/11/11 00:24:22;;;;;;;7.58;6.45;;;;;;;13.12;44.15;101390.40;1755543;80;21131;-63
2021/11/11 00:26:48;;;;;;;7.33;5.95;;;;;;;13.11;44.14;101379.36;1754604;80;21649;-63
2021/11/11 00:29:14;;;;;;;7.25;5.47;;;;;;;13.10;44.16;101384.37;1755831;80;21061;-64
2021/11/11 00:31:41;;;;;;;8.15;6.12;;;;;;;13.10;44.15;101371.53;1753859;80;21053;-63
2021/11/11 00:34:08;;;;;;;6.50;5.40;;;;;;;13.08;44.17;101373.50;1760694;80;21038;-63
2021/11/11 00:36:34;;;;;;;7.80;6.17;;;;;;;13.07;44.13;101374.47;1750267;80;21201;-64
2021/11/11 00:39:01;;;;;;;6.78;5.90;;;;;;;13.06;44.14;101376.31;1753390;80;21113;-64
2021/11/11 00:41:27;;;;;;;6.53;5.87;;;;;;;13.05;44.17;101371.94;1758754;80;21085;-64
2021/11/11 00:43:54;;;;;;;7.35;5.80;;;;;;;13.05;44.15;101367.94;1757592;80;21028;-63
2021/11/11 00:46:20;;;;;;;6.65;5.90;;;;;;;13.04;44.12;101362.27;1754362;80;21069;-63
2021/11/11 00:48:47;;;;;;;7.10;5.72;;;;;;;12.95;44.14;101355.13;1761456;80;21105;-62
2021/11/11 00:51:14;;;;;;;7.87;6.12;;;;;;;13.02;44.12;101369.58;1749549;80;21981;-64
2021/11/11 00:53:41;;;;;;;6.37;5.55;;;;;;;13.02;44.15;101366.05;1751965;81;21249;-62
2021/11/11 00:56:07;;;;;;;7.28;6.05;;;;;;;13.00;44.13;101355.55;1755363;80;21565;-63
2021/11/11 00:58:36;;;;;;;6.83;5.55;;;;;;;12.99;44.11;101361.35;1748971;81;21046;-63
2021/11/11 01:01:02;;;;;;;7.17;5.53;;;;;;;12.99;44.10;101347.18;1743264;80;21140;-62
2021/11/11 01:03:40;;;;;;;7.15;5.60;;;;;;;12.98;44.09;101341.52;1742797;80;21133;-64
2021/11/11 01:06:06;;;;;;;7.33;5.78;;;;;;;12.96;44.09;101344.79;1744519;80;21039;-64
2021/11/11 01:08:32;;;;;;;6.28;5.30;;;;;;;12.96;44.07;101347.45;1749427;80;21136;-64
2021/11/11 01:11:00;;;;;;;6.47;5.55;;;;;;;12.95;44.08;101351.13;1746827;80;21053;-62
2021/11/11 01:13:27;;;;;;;6.20;5.60;;;;;;;12.94;44.10;101337.42;1752133;80;21197;-63
2021/11/11 01:15:54;;;;;;;6.75;5.53;;;;;;;12.93;44.08;101331.76;1752250;80;21050;-64
2021/11/11 01:18:22;;;;;;;6.40;5.53;;;;;;;12.92;44.06;101333.59;1703289;83;21550;-63
2021/11/11 01:20:48;;;;;;;5.78;4.87;;;;;;;12.90;44.07;101332.90;1706527;83;21062;-63
2021/11/11 01:23:14;;;;;;;5.62;4.70;;;;;;;12.89;44.08;101337.88;1744192;81;21049;-63
2021/11/11 01:25:42;;;;;;;7.33;5.83;;;;;;;12.89;44.07;101331.20;1751587;80;21137;-62
2021/11/11 01:28:09;;;;;;;6.15;5.17;;;;;;;12.89;44.04;101329.87;1756936;80;21033;-63
2021/11/11 01:30:39;;;;;;;5.97;4.97;;;;;;;12.89;44.04;101330.38;1745546;80;21050;-64
2021/11/11 01:33:09;;;;;;;6.70;5.30;;;;;;;12.88;44.04;101320.67;1744920;80;21022;-64
2021/11/11 01:35:35;;;;;;;7.55;5.75;;;;;;;12.86;44.06;101320.81;1747946;80;21054;-63
2021/11/11 01:38:04;;;;;;;8.70;6.05;;;;;;;12.84;44.03;101317.45;1740763;80;21135;-63
2021/11/11 01:40:31;;;;;;;6.33;5.72;;;;;;;12.83;44.05;101315.78;1756120;80;21483;-65
2021/11/11 01:43:01;;;;;;;6.50;5.10;;;;;;;12.82;44.03;101322.09;1756329;80;21518;-63
2021/11/11 01:45:30;;;;;;;7.15;5.55;;;;;;;12.82;44.04;101314.09;1751032;80;21105;-63
2021/11/11 01:47:59;;;;;;;7.62;5.62;;;;;;;12.81;43.99;101308.42;1749426;81;21550;-63
2021/11/11 01:50:28;;;;;;;6.47;5.15;;;;;;;12.81;43.99;101308.92;1749002;80;21094;-63
2021/11/11 01:52:55;;;;;;;6.87;6.08;;;;;;;12.81;43.99;101322.26;1718401;82;21065;-63
2021/11/11 01:55:22;;;;;;;7.75;5.90;;;;;;;12.78;43.99;101300.70;1750358;80;21038;-63
2021/11/11 01:57:51;;;;;;;6.72;5.22;;;;;;;12.78;43.95;101294.86;1756905;80;21828;-64
2021/11/11 02:00:25;;;;;;;5.78;5.17;;;;;;;12.77;43.94;101294.53;1698405;82;21008;-63
2021/11/11 02:02:57;;;;;;;7.47;5.15;;;;;;;12.77;43.96;101292.37;1751434;80;21145;-64
2021/11/11 02:05:42;;;;;;;5.47;4.83;;;;;;;12.76;43.96;101281.34;1718544;82;21514;-66
2021/11/11 02:08:11;;;;;;;6.12;4.95;;;;;;;12.74;43.98;101276.14;1760070;80;21105;-64
2021/11/11 02:10:39;;;;;;;7.20;5.80;;;;;;;12.73;43.96;101264.31;1721050;82;21136;-63
2021/11/11 02:13:07;;;;;;;7.72;5.33;;;;;;;12.72;43.93;101267.45;1723813;82;21022;-64
2021/11/11 02:15:33;;;;;;;6.15;4.92;;;;;;;12.71;43.93;101271.12;1755964;80;21220;-62
2021/11/11 02:18:01;;;;;;;6.12;5.05;;;;;;;12.70;43.93;101266.75;1746886;80;21604;-63
2021/11/11 02:20:32;;;;;;;6.35;4.95;;;;;;;12.69;43.94;101261.09;1761314;80;21091;-64
2021/11/11 02:23:10;;;;;;;6.17;5.00;;;;;;;12.70;43.93;101260.59;1685793;80;21529;-63
2021/11/11 02:25:55;;;;;;;6.80;5.10;;;;;;;12.69;43.93;101274.89;1751365;80;21542;-63
2021/11/11 02:28:23;;;;;;;5.97;5.10;;;;;;;12.67;43.96;101256.40;1755253;80;21122;-65
2021/11/11 02:30:52;;;;;;;5.87;4.55;;;;;;;12.67;43.95;101269.73;1701342;83;22165;-63
2021/11/11 02:33:23;;;;;;;6.60;5.42;;;;;;;12.67;43.92;101264.40;1751582;80;21058;-62
2021/11/11 02:35:51;;;;;;;8.58;5.65;;;;;;;12.65;43.89;101261.03;1754699;80;21584;-64
2021/11/11 02:38:17;;;;;;;4.95;4.40;;;;;;;12.65;43.90;101269.50;1749680;80;22664;-63
2021/11/11 02:40:44;;;;;;;7.50;5.33;;;;;;;12.65;43.89;101257.51;1767251;80;22646;-66
2021/11/11 02:43:12;;;;;;;6.87;5.00;;;;;;;12.63;43.89;101249.64;1762206;80;21567;-64
2021/11/11 02:45:42;;;;;;;6.45;5.28;;;;;;;12.63;43.94;101258.98;1765705;80;21058;-63
2021/11/11 02:48:10;;;;;;;5.90;5.05;;;;;;;12.62;43.91;101258.64;1758914;80;22139;-63
2021/11/11 02:50:41;;;;;;;7.10;5.65;;;;;;;12.61;43.89;101253.45;1766989;80;21541;-62
2021/11/11 02:53:09;;;;;;;5.15;4.50;;;;;;;12.59;43.87;101245.59;1769326;80;21617;-63
2021/11/11 02:55:36;;;;;;;6.62;5.22;;;;;;;12.59;43.87;101263.78;1764028;80;21521;-63
2021/11/11 02:58:03;;;;;;;6.15;4.53;;;;;;;12.60;43.86;101239.29;1763630;80;21049;-63
2021/11/11 03:00:44;;;;;;;6.37;5.17;;;;;;;12.58;43.86;101235.43;1765331;80;21044;-63
2021/11/11 03:03:13;;;;;;;5.60;4.55;;;;;;;12.58;43.84;101229.27;1707650;82;21089;-63
2021/11/11 03:05:40;;;;;;;5.42;4.83;;;;;;;12.57;43.83;101234.23;1761040;80;21146;-64
2021/11/11 03:08:10;;;;;;;5.92;5.10;;;;;;;12.56;43.84;101228.07;1700664;82;21083;-62
2021/11/11 03:10:40;;;;;;;7.28;5.08;;;;;;;12.55;43.82;101233.54;1760185;80;21081;-64
2021/11/11 03:13:07;;;;;;;5.62;4.67;;;;;;;12.54;43.85;101227.88;1763864;80;21069;-63
2021/11/11 03:15:33;;;;;;;6.78;4.97;;;;;;;12.53;43.84;101218.19;1764158;80;21062;-63
2021/11/11 03:18:02;;;;;;;5.95;4.95;;;;;;;12.52;43.84;101210.69;1764219;80;21058;-63
2021/11/11 03:20:28;;;;;;;5.47;4.75;;;;;;;12.52;43.81;101211.19;1766332;80;21581;-64
2021/11/11 03:22:54;;;;;;;5.80;4.75;;;;;;;12.51;43.87;101199.66;1769770;80;21026;-63
2021/11/11 03:25:25;;;;;;;6.53;5.50;;;;;;;12.51;43.85;101201.00;1766217;80;21084;-63
2021/11/11 03:27:52;;;;;;;6.17;4.70;;;;;;;12.50;43.84;101194.50;1772779;80;21374;-63
2021/11/11 03:30:21;;;;;;;5.55;4.85;;;;;;;12.50;43.84;101185.17;1761150;80;21159;-63
2021/11/11 03:32:49;;;;;;;6.35;5.03;;;;;;;12.48;43.83;101187.98;1767189;80;21010;-64
2021/11/11 03:35:15;;;;;;;5.75;5.10;;;;;;;12.48;43.84;101177.81;1763307;80;21078;-63
2021/11/11 03:37:44;;;;;;;5.90;5.12;;;;;;;12.47;43.84;101176.13;1696836;83;21066;-63
2021/11/11 03:40:18;;;;;;;7.83;5.50;;;;;;;12.47;43.82;101169.45;1772030;80;21457;-63
2021/11/11 03:42:46;;;;;;;6.30;4.17;;;;;;;12.46;43.83;101163.77;1760143;80;21161;-64
2021/11/11 03:45:13;;;;;;;7.10;5.25;;;;;;;12.45;43.81;101155.44;1763888;80;21025;-63
2021/11/11 03:47:45;;;;;;;5.00;4.25;;;;;;;12.44;43.80;101161.27;1708014;83;21032;-63
2021/11/11 03:50:12;;;;;;;5.53;4.33;;;;;;;12.43;43.81;101146.75;1769515;80;21022;-63
2021/11/11 03:52:39;;;;;;;5.78;4.55;;;;;;;12.43;43.83;101149.42;1760664;80;21089;-64
2021/11/11 03:55:08;;;;;;;5.92;4.80;;;;;;;12.43;43.81;101148.09;1757969;80;21147;-62
2021/11/11 03:57:36;;;;;;;6.15;4.97;;;;;;;12.41;43.84;101147.39;1716918;82;21036;-63
2021/11/11 04:00:10;;;;;;;6.15;4.70;;;;;;;12.39;43.80;101144.37;1759209;80;21121;-63
2021/11/11 04:02:38;;;;;;;5.40;4.55;;;;;;;12.38;43.78;101141.38;1752683;80;21025;-63
2021/11/11 04:05:06;;;;;;;5.72;4.65;;;;;;;12.37;43.79;101126.35;1716579;82;21110;-64
2021/11/11 04:07:34;;;;;;;5.12;4.60;;;;;;;12.36;43.78;101116.70;1765714;80;21772;-63
2021/11/11 04:10:04;;;;;;;5.05;4.55;;;;;;;12.36;43.79;101119.36;1758396;80;21136;-63
2021/11/11 04:12:33;;;;;;;5.25;4.58;;;;;;;12.36;43.76;101127.83;1760430;80;21042;-62
2021/11/11 04:14:59;;;;;;;6.10;4.60;;;;;;;12.33;43.75;101120.97;1755900;80;21113;-63
2021/11/11 04:17:27;;;;;;;4.92;4.37;;;;;;;12.32;43.74;101112.64;1760584;80;21576;-63
2021/11/11 04:19:53;;;;;;;5.95;4.60;;;;;;;12.32;43.78;101116.64;1757327;80;21105;-64
2021/11/11 04:22:20;;;;;;;5.55;4.83;;;;;;;12.32;43.77;101119.78;1753288;80;21093;-63
2021/11/11 04:24:48;;;;;;;6.50;4.65;;;;;;;12.31;43.78;101124.28;1757168;80;21051;-63
2021/11/11 04:27:26;;;;;;;5.40;4.28;;;;;;;12.31;43.76;101122.94;1757512;80;21640;-63
2021/11/11 04:29:58;;;;;;;7.25;5.45;;;;;;;12.29;43.74;101120.09;1746762;80;21526;-64
2021/11/11 04:32:16;;;;;;;4.83;4.30;;;;;;;12.29;43.75;101121.42;1746995;80;21157;-64
2021/11/11 04:34:44;;;;;;;5.40;4.15;;;;;;;12.28;43.71;101126.39;1755713;80;21074;-63
2021/11/11 04:37:33;;;;;;;5.15;4.42;;;;;;;12.28;43.70;101099.74;1750095;80;21033;-63
2021/11/11 04:40:33;;;;;;;4.67;4.15;;;;;;;12.26;43.69;101084.40;1759805;80;20983;-63
2021/11/11 04:43:02;;;;;;;5.58;4.67;;;;;;;12.25;43.71;101095.55;1757789;80;21058;-63
2021/11/11 04:48:25;;;;;;;5.20;4.25;;;;;;;12.22;43.72;101087.02;1746819;80;21011;-63
2021/11/11 05:01:35;;;;;;;5.28;4.60;;;;;;;12.15;43.74;101069.45;1757879;80;21034;-63
2021/11/11 05:03:56;;;;;;;5.12;4.62;;;;;;;12.13;43.71;101074.06;1749585;80;21665;-63
2021/11/11 05:06:24;;;;;;;4.75;4.22;;;;;;;12.11;43.74;101086.22;1756968;80;21483;-63
2021/11/11 05:08:50;;;;;;;5.35;4.28;;;;;;;12.11;43.76;101078.69;1768909;80;21435;-64
2021/11/11 05:11:18;;;;;;;6.42;4.72;;;;;;;12.11;43.73;101101.33;1759752;80;21047;-63
2021/11/11 05:13:45;;;;;;;4.40;3.67;;;;;;;12.10;43.72;101092.52;1768682;80;21527;-64
2021/11/11 05:16:14;;;;;;;6.40;4.62;;;;;;;12.09;43.72;101093.52;1733270;82;21092;-63
2021/11/11 05:18:42;;;;;;;5.10;4.17;;;;;;;12.09;43.72;101099.31;1709307;82;21081;-64
2021/11/11 05:21:10;;;;;;;4.78;3.85;;;;;;;12.09;43.68;101102.83;1699294;83;21097;-62
2021/11/11 05:23:37;;;;;;;4.92;4.17;;;;;;;12.09;43.70;101099.31;1760250;80;21129;-63
2021/11/11 05:26:04;;;;;;;5.30;4.40;;;;;;;12.08;43.68;101090.98;1743863;80;22204;-65
2021/11/11 05:28:31;;;;;;;5.03;4.35;;;;;;;12.08;43.65;101098.98;1761548;80;22388;-63
2021/11/11 05:31:00;;;;;;;4.60;3.80;;;;;;;12.07;43.66;101080.83;1756722;80;21041;-64
2021/11/11 05:33:26;;;;;;;6.05;4.33;;;;;;;12.07;43.66;101084.83;1765466;80;21068;-63
2021/11/11 05:35:53;;;;;;;5.83;4.45;;;;;;;12.07;43.63;101086.62;1765509;80;21085;-64
2021/11/11 05:38:19;;;;;;;4.33;3.92;;;;;;;12.07;43.63;101083.97;1758460;80;21037;-63
2021/11/11 05:40:46;;;;;;;6.33;4.75;;;;;;;12.08;43.64;101081.66;1761388;80;21010;-64
2021/11/11 05:43:12;;;;;;;5.17;4.20;;;;;;;12.07;43.62;101084.83;1759831;80;21001;-63
2021/11/11 05:45:39;;;;;;;6.15;4.45;;;;;;;12.07;43.64;101079.50;1760289;80;21510;-63
2021/11/11 05:48:05;;;;;;;4.80;3.83;;;;;;;12.08;43.61;101088.33;1770942;80;21752;-64
2021/11/11 05:50:36;;;;;;;5.85;3.85;;;;;;;12.08;43.59;101073.67;1772275;80;21116;-64
2021/11/11 05:53:03;;;;;;;5.10;4.28;;;;;;;12.08;43.58;101059.02;1743910;80;21051;-64
2021/11/11 05:55:30;;;;;;;5.67;4.42;;;;;;;12.09;43.57;101063.34;1751763;80;21071;-65
2021/11/11 05:57:57;;;;;;;5.22;3.87;;;;;;;12.08;43.57;101071.84;1761419;80;21372;-63
2021/11/11 06:00:24;;;;;;;4.47;3.52;;;;;;;12.09;43.58;101078.86;1747428;80;23253;-65
2021/11/11 06:02:55;;;;;;;5.28;4.12;;;;;;;12.09;43.56;101072.20;1753134;80;21094;-63
2021/11/11 06:05:26;;;;;;;6.42;4.28;;;;;;;12.09;43.57;101070.01;1752924;80;21096;-63
2021/11/11 06:07:52;;;;;;;5.67;4.55;;;;;;;12.10;43.57;101073.03;1761648;80;21066;-65
2021/11/11 06:10:19;;;;;;;6.08;4.37;;;;;;;12.09;43.53;101066.88;1757118;80;21093;-66
2021/11/11 06:12:46;;;;;;;6.28;4.67;;;;;;;12.10;43.55;101071.70;1734733;81;21138;-65
2021/11/11 06:15:12;;;;;;;5.17;4.28;;;;;;;12.11;43.67;101069.37;1757455;80;21057;-65
2021/11/11 06:17:41;;;;;;;4.70;3.80;;;;;;;12.11;43.76;101076.89;1759684;80;21052;-65
2021/11/11 06:20:15;;;;;;;5.20;4.03;;;;;;;12.11;43.78;101084.02;1751930;80;21528;-63
2021/11/11 06:22:38;;;;;;;5.08;4.45;;;;;;;12.13;43.77;101087.38;1755534;80;21482;-64
2021/11/11 06:25:05;;;;;;;5.60;3.98;;;;;;;12.13;43.76;101077.58;1765277;80;22004;-64
2021/11/11 06:27:32;;;;;;;5.72;4.60;;;;;;;12.14;43.71;101056.60;1750596;80;21059;-64
2021/11/11 06:29:59;;;;;;;5.03;4.12;;;;;;;12.15;43.71;101044.14;1760324;80;21032;-63
2021/11/11 06:32:25;;;;;;;5.80;4.35;;;;;;;12.16;43.69;101040.48;1752763;80;21022;-64
2021/11/11 06:34:52;;;;;;;4.97;4.40;;;;;;;12.16;43.67;101041.81;1740013;80;20998;-65
2021/11/11 06:37:18;;;;;;;7.95;4.62;;;;;;;12.17;43.65;101028.85;1762374;80;21916;-65
2021/11/11 06:39:45;;;;;;;4.92;4.25;;;;;;;12.16;43.63;101027.16;1758528;80;21105;-65
2021/11/11 06:42:12;;;;;;;6.12;4.40;;;;;;;12.17;43.65;101047.50;1752820;80;21103;-65
2021/11/11 06:44:42;;;;;;;5.90;4.47;;;;;;;12.18;43.65;101049.16;1757153;80;21039;-64
2021/11/11 06:47:08;;;;;;;5.72;3.98;;;;;;;12.19;43.61;101049.52;1757517;80;21021;-64
2021/11/11 06:49:34;;;;;;;4.80;3.98;;;;;;;12.19;43.59;101045.53;1758054;80;21151;-64
2021/11/11 06:52:04;;;;;;;5.62;4.35;;;;;;;12.22;43.59;101047.05;1746177;80;21116;-67
2021/11/11 06:54:29;;;;;;;5.40;4.08;;;;;;;12.22;43.58;101057.20;1742288;80;21541;-64
2021/11/11 06:56:56;;;;;;;4.87;4.08;;;;;;;12.23;43.55;101035.39;1746057;80;21081;-63
2021/11/11 06:59:24;;;;;;;6.55;4.78;;;;;;;12.23;43.54;101036.25;1739776;80;21061;-65
2021/11/11 07:01:51;;;;;;;5.28;4.45;;;;;;;12.24;43.51;101033.91;1743804;80;21147;-65
2021/11/11 07:04:18;;;;;;;5.35;4.30;;;;;;;12.24;43.48;101023.25;1741761;80;21073;-65
2021/11/11 07:06:45;;;;;;;7.55;4.53;;;;;;;12.27;43.47;101036.30;1746006;82;21086;-66
2021/11/11 07:09:12;;;;;;;4.17;3.60;;;;;;;12.27;43.45;101036.30;1719525;82;21069;-65
2021/11/11 07:11:40;;;;;;;5.40;4.47;;;;;;;12.29;43.45;101034.82;1741598;82;21021;-65
2021/11/11 07:14:07;;;;;;;4.83;4.15;;;;;;;12.31;43.45;101038.17;1748800;82;21149;-66
2021/11/11 07:16:34;;;;;;;6.65;4.10;;;;;;;12.31;43.42;101044.34;1745239;82;21097;-65
2021/11/11 07:19:00;;;;;;;5.62;4.53;;;;;;;12.33;43.38;101053.02;1735032;80;21033;-64
2021/11/11 07:21:27;;;;;;;6.20;4.20;;;;;;;12.34;43.37;101036.06;1747506;80;21059;-66
2021/11/11 07:23:53;;;;;;;5.12;4.00;;;;;;;12.36;43.37;101041.22;1738988;80;21068;-65
2021/11/11 07:26:21;;;;;;;6.25;4.33;;;;;;;12.37;43.38;101033.08;1739934;80;21141;-66
2021/11/11 07:28:48;;;;;;;6.40;4.55;;;;;;;12.39;43.35;101033.77;1735725;80;21053;-66
2021/11/11 07:31:19;;;;;;;4.83;4.03;;;;;;;12.41;43.32;101028.80;1743947;80;21073;-66
2021/11/11 07:33:43;;;;;;;5.92;3.80;;;;;;;12.42;43.31;101031.80;1745788;80;21097;-66
2021/11/11 07:36:10;;;;;;;6.58;4.22;;;;;;;12.44;43.30;101036.48;1747372;82;21076;-66
2021/11/11 07:38:37;;;;;;;4.60;3.95;;;;;;;12.45;43.26;101034.17;1745362;80;21100;-65
2021/11/11 07:41:03;;;;;;;4.67;3.60;;;;;;;12.46;43.23;101026.03;1739983;80;21050;-66
2021/11/11 07:43:29;;;;;;;5.65;4.12;;;;;;;12.48;43.22;101024.56;1740614;80;21065;-65
2021/11/11 07:46:03;;;;;;;6.03;4.15;;;;;;;12.51;43.20;101022.91;1741802;80;21088;-65
2021/11/11 07:48:25;;;;;;;5.08;4.08;;;;;;;12.53;43.17;101016.94;1743514;80;21529;-62
2021/11/11 07:50:54;;;;;;;7.22;4.62;;;;;;;12.55;43.15;101012.29;1743937;80;21116;-64
2021/11/11 07:53:22;;;;;;;6.20;4.30;;;;;;;12.56;43.14;101014.81;1771008;80;21044;-63
2021/11/11 07:55:48;;;;;;;4.95;3.92;;;;;;;12.58;43.09;101003.50;1773183;80;21101;-66
2021/11/11 07:58:17;;;;;;;4.72;3.90;;;;;;;12.62;43.06;101014.70;1773335;80;21580;-63
2021/11/11 08:00:43;;;;;;;5.65;4.33;;;;;;;12.65;43.01;101007.75;1775971;80;21509;-65
2021/11/11 08:03:10;;;;;;;6.40;4.58;;;;;;;12.69;43.00;101005.12;1770794;80;21572;-65
2021/11/11 08:06:50;;;;;;;4.80;4.15;;;;;;;12.79;42.94;100989.89;1794264;79;28081;-65
2021/11/11 08:09:17;;;;;;;4.53;4.03;;;;;;;12.78;42.90;101018.86;1776498;80;21039;-66
2021/11/11 08:11:45;;;;;;;7.95;4.10;;;;;;;12.85;42.86;100998.28;1765355;80;20982;-64
2021/11/11 08:14:11;;;;;;;4.65;3.98;;;;;;;12.90;42.82;100996.84;1774029;80;20994;-65
2021/11/11 08:16:38;;;;;;;5.35;4.10;;;;;;;12.96;42.80;101009.55;1778017;80;21033;-66
2021/11/11 08:19:04;;;;;;;5.00;4.28;;;;;;;13.01;42.76;101022.42;1765480;80;21052;-66
2021/11/11 08:21:31;;;;;;;5.85;4.53;;;;;;;13.07;42.71;101012.47;1766597;80;21139;-67
2021/11/11 08:23:57;;;;;;;4.47;4.08;;;;;;;13.14;42.70;101030.05;1740571;81;21774;-67
2021/11/11 08:26:24;;;;;;;4.92;4.17;;;;;;;13.21;42.66;101013.75;1707896;82;21579;-68
2021/11/11 08:28:51;;;;;;;5.45;4.58;;;;;;;13.28;42.59;101013.48;1731511;82;21112;-68
2021/11/11 08:31:17;;;;;;;5.15;3.98;;;;;;;13.33;42.55;101005.89;1743296;81;21058;-65
2021/11/11 08:33:44;;;;;;;5.47;4.28;;;;;;;13.42;42.46;101008.11;1737540;81;21049;-66
2021/11/11 08:36:12;;;;;;;5.15;4.08;;;;;;;13.48;42.40;101018.66;1730115;81;21151;-66
2021/11/11 08:38:38;;;;;;;5.10;4.17;;;;;;;13.56;42.32;100993.37;1734971;81;21034;-65
2021/11/11 08:41:04;;;;;;;4.95;4.12;;;;;;;13.64;42.30;100984.08;1736876;81;21006;-67
2021/11/11 08:43:32;;;;;;;6.22;4.20;;;;;;;13.71;42.29;100986.94;1735775;81;21628;-67
2021/11/11 08:45:58;;;;;;;5.37;4.50;;;;;;;13.79;42.39;100976.80;1736537;81;21065;-68
2021/11/11 08:48:25;;;;;;;4.70;4.08;;;;;;;13.88;42.42;100983.86;1734435;81;21141;-67
2021/11/11 08:50:54;;;;;;;5.47;4.28;;;;;;;13.94;42.50;100973.37;1735140;81;21042;-67
2021/11/11 08:53:20;;;;;;;5.92;4.58;;;;;;;14.02;42.61;100968.55;1728459;81;21049;-65
2021/11/11 08:55:47;;;;;;;4.45;4.05;;;;;;;14.10;42.60;100958.41;1741829;81;21049;-67
2021/11/11 08:58:13;;;;;;;5.80;4.35;;;;;;;14.18;42.51;100960.27;1746593;81;21691;-68
2021/11/11 09:00:48;;;;;;;5.53;4.33;;;;;;;14.25;42.30;100950.09;1734113;81;21223;-65
2021/11/11 09:03:15;;;;;;;6.28;4.20;;;;;;;14.34;42.14;100930.92;1738919;81;21300;-66
2021/11/11 09:05:42;;;;;;;6.20;4.47;;;;;;;14.43;42.00;100929.09;1741246;81;21186;-65
2021/11/11 09:08:09;;;;;;;5.40;3.75;;;;;;;14.51;41.94;100926.45;1731925;82;21047;-64
2021/11/11 09:10:38;;;;;;;5.17;4.25;;;;;;;14.60;41.79;100922.80;1767625;80;21022;-66
2021/11/11 09:13:04;;;;;;;6.35;4.75;;;;;;;14.70;41.70;100940.88;1770148;80;21210;-66
2021/11/11 09:15:31;;;;;;;4.70;3.60;;;;;;;14.80;41.59;100906.45;1768769;80;21033;-67
2021/11/11 09:18:00;;;;;;;4.80;3.40;;;;;;;14.88;41.49;100902.43;1768689;80;21049;-66
2021/11/11 09:20:26;;;;;;;6.10;3.95;;;;;;;14.98;41.37;100896.39;1767539;80;21098;-66
2021/11/11 09:22:57;;;;;;;6.12;4.05;;;;;;;15.08;41.24;100886.84;1757785;80;21148;-65
2021/11/11 09:25:25;;;;;;;4.75;4.00;;;;;;;15.18;41.18;100875.95;1767753;80;21140;-66
2021/11/11 09:27:51;;;;;;;5.47;4.20;;;;;;;15.27;41.15;100890.48;1762776;80;21104;-65
2021/11/11 09:30:21;;;;;;;4.20;3.67;;;;;;;15.37;41.14;100874.75;1772536;80;21033;-65
2021/11/11 09:32:47;;;;;;;4.20;3.50;;;;;;;15.45;41.19;100861.33;1768228;80;21492;-65
2021/11/11 09:35:14;;;;;;;5.28;3.85;;;;;;;15.55;41.21;100851.27;1764695;80;21057;-66
2021/11/11 09:37:41;;;;;;;5.33;4.17;;;;;;;15.65;41.18;100861.26;1769884;80;21154;-65
2021/11/11 09:40:11;;;;;;;4.40;3.33;;;;;;;15.75;41.25;100858.91;1762362;80;21069;-65
2021/11/11 09:42:38;;;;;;;4.45;3.62;;;;;;;15.86;41.23;100856.67;1765602;80;21065;-65
2021/11/11 09:45:06;;;;;;;5.20;3.65;;;;;;;15.96;41.19;100855.11;1768624;80;21436;-66
2021/11/11 09:47:33;;;;;;;5.10;4.15;;;;;;;16.04;41.15;100814.85;1773954;80;21051;-66
2021/11/11 09:50:00;;;;;;;6.33;4.30;;;;;;;16.15;41.21;100823.48;1764661;80;21152;-66
2021/11/11 09:52:27;;;;;;;4.95;4.12;;;;;;;16.25;41.27;100804.00;1765850;80;21089;-66
2021/11/11 10:00:24;;;;;;;5.08;3.75;;;;;;;16.56;41.27;100819.17;1765190;80;21062;-65
2021/11/11 10:02:54;;;;;;;5.85;3.98;;;;;;;16.66;41.32;100810.34;1760630;80;21153;-66
2021/11/11 10:05:21;;;;;;;5.83;3.72;;;;;;;16.75;41.23;100797.19;1767185;80;21026;-65
2021/11/11 10:07:47;;;;;;;6.10;3.42;;;;;;;16.85;41.29;100796.95;1766686;80;21080;-65
2021/11/11 10:10:37;;;;;;;4.40;3.55;;;;;;;16.95;41.24;100789.45;1760326;80;21617;-65
2021/11/11 10:13:17;;;;;;;4.42;3.45;;;;;;;17.05;41.04;100771.21;1700633;82;21361;-65
2021/11/11 10:16:15;;;;;;;4.00;3.33;;;;;;;17.17;41.03;100765.38;1776418;80;21957;-66
2021/11/11 10:18:52;;;;;;;4.67;3.52;;;;;;;17.26;41.00;100761.06;1771993;80;21089;-64
2021/11/11 10:21:29;;;;;;;4.15;3.40;;;;;;;17.37;40.89;100766.48;1763470;80;21045;-64
2021/11/11 10:23:59;;;;;;;5.62;4.03;;;;;;;17.47;40.80;100754.92;1764521;80;21062;-65
2021/11/11 10:26:38;;;;;;;3.70;3.22;;;;;;;17.58;40.66;100738.83;1764015;80;21150;-64
2021/11/11 10:28:56;;;;;;;3.62;3.15;;;;;;;17.67;40.63;100739.53;1765046;80;21130;-65
2021/11/11 10:31:23;;;;;;;3.90;3.42;;;;;;;17.77;40.52;100740.08;1773559;80;21731;-65
2021/11/11 10:34:07;;;;;;;4.42;3.17;;;;;;;17.86;40.41;100713.41;1766650;80;21160;-65
2021/11/11 10:36:47;;;;;;;3.20;2.90;;;;;;;17.98;40.27;100724.98;1768952;80;21053;-64
2021/11/11 10:41:43;;;;;;;4.00;3.30;;;;;;;18.25;40.34;100713.94;1803682;78;22003;-65
2021/11/11 10:44:31;;;;;;;4.60;3.05;;;;;;;18.31;40.14;100723.95;1782169;80;21045;-64
2021/11/11 10:47:04;;;;;;;3.85;2.77;;;;;;;18.38;39.88;100710.02;1768807;80;21123;-65
2021/11/11 10:49:38;;;;;;;3.75;3.25;;;;;;;18.41;39.68;100719.58;1770157;80;20942;-64
2021/11/11 10:52:28;;;;;;;3.85;3.15;;;;;;;18.41;39.49;100724.95;1799235;78;21044;-66
2021/11/11 10:55:17;;;;;;;3.90;3.20;;;;;;;18.41;39.39;100710.98;1783900;79;21247;-64
2021/11/11 10:58:04;;;;;;;3.92;2.87;;;;;;;18.40;39.28;100732.17;1774892;79;21552;-64
2021/11/11 11:00:38;;;;;;;3.33;2.83;;;;;;;18.38;39.24;100726.16;1781763;79;21150;-65
2021/11/11 11:03:18;;;;;;;4.20;3.20;;;;;;;18.39;39.18;100723.80;1783873;79;20988;-65
2021/11/11 11:05:59;;;;;;;4.67;3.45;;;;;;;18.39;39.14;100713.56;1774927;79;20984;-66
2021/11/11 11:08:37;;;;;;;3.08;2.77;;;;;;;18.40;39.10;100709.83;1814376;78;21041;-65
2021/11/11 11:11:30;;;;;;;4.15;2.98;;;;;;;18.40;39.07;100717.38;1779750;80;21694;-64
2021/11/11 11:14:00;;;;;;;4.78;3.00;;;;;;;18.41;39.04;100705.59;1783761;79;21063;-65
2021/11/11 11:16:35;;;;;;;3.85;3.35;;;;;;;18.39;39.01;100702.80;1780646;79;21104;-65
2021/11/11 11:19:05;;;;;;;3.75;2.72;;;;;;;18.39;39.03;100692.04;1781728;79;21056;-64
2021/11/11 11:21:49;;;;;;;3.85;3.08;;;;;;;18.36;38.99;100701.31;1781666;79;21548;-66
2021/11/11 11:24:19;;;;;;;;;;;;;;;18.33;38.95;100684.23;1784985;79;21064;-66
2021/11/11 11:26:51;;;;;;;3.55;2.87;;;;;;;18.28;38.94;100683.45;1777909;79;21045;-64
2021/11/11 11:29:27;;;;;;;4.72;3.20;;;;;;;18.22;39.02;100680.73;1789663;79;21532;-65
2021/11/11 11:31:53;;;;;;;4.60;3.15;;;;;;;18.17;39.05;100666.52;1776421;79;21044;-63
2021/11/11 11:34:28;;;;;;;4.50;3.85;;;;;;;18.14;39.06;100658.85;1790520;79;21055;-64
2021/11/11 11:37:03;;;;;;;3.90;3.27;;;;;;;18.09;39.06;100668.00;1783415;79;21352;-65
2021/11/11 11:39:36;;;;;;;3.40;2.70;;;;;;;18.05;39.05;100660.02;1784743;79;21791;-64
2021/11/11 11:42:10;;;;;;;3.00;2.72;;;;;;;18.01;39.01;100659.56;1764123;79;21002;-65
2021/11/11 11:44:51;;;;;;;3.17;2.77;;;;;;;17.98;39.01;100657.78;1744657;80;21117;-66
2021/11/11 11:50:25;;;;;;;3.85;3.15;;;;;;;17.91;38.99;100662.29;1773933;78;21054;-65
2021/11/11 11:53:02;;;;;;;6.65;3.58;;;;;;;17.86;39.01;100652.92;1785849;78;21124;-66
2021/11/11 11:55:34;;;;;;;4.62;3.42;;;;;;;17.82;39.04;100648.11;1747743;80;21142;-65
2021/11/11 11:58:02;;;;;;;4.33;2.92;;;;;;;17.78;39.11;100635.56;1748587;80;21655;-65
2021/11/11 12:03:33;;;;;;;3.72;3.15;;;;;;;17.72;39.16;100625.59;1751357;80;21129;-65